Point Mugu Nawc, CA

2:23 PM PDT on July 28, 2016 (GMT -0700)
Point Mugu Naval Air Station | | Change Station

Elev 13 ft 34.12 °N, 119.12 °W | Updated 27 minutes ago

Scattered Clouds
Scattered Clouds
75 °F
Feels Like 75 °F
N
12
Wind Variable Wind from WSW

Today
High -- | Low -- °F
--% Chance of Precip.
Yesterday
High -- | Low -- °F
Precip. -- in
Pressure 29.92 in
Visibility 10.0 miles
Clouds Scattered Clouds 1000 ft
Dew Point 65 °F
Humidity 71%
Rainfall 0.00 in
Snow Depth Not available.
6:08 AM 7:59 PM
Waning Crescent, 28% visible
METAR KNTD 282056Z 25010KT 10SM SCT010 24/18 A2989 RMK SLP130 T02390183 CHINO N VISNO N 58006
Pressure 29.92 in
Visibility 10.0 miles
Clouds Scattered Clouds 1000 ft
Dew Point 65 °F
Humidity 71%
Rainfall 0.00 in
Snow Depth Not available.
6:08 AM 7:59 PM
Waning Crescent, 28% visible
METAR KNTD 282056Z 25010KT 10SM SCT010 24/18 A2989 RMK SLP130 T02390183 CHINO N VISNO N 58006

10-Day Weather Forecast

Almanac

Astronomy

Jul. 28, 2016 Rise Set
Actual Time
Civil Twilight
Nautical Twilight
Astronomical Twilight
Moon
Length of Visible Light
Length of Day
Tomorrow will be .
, % of the Moon is Illuminated

Today's Extremes

State Highs State Lows

Community

WunderPhotos

Upload Photos

1,928,224 photos uploaded!

WunderBlog® & News

Nearby

Air Quality

  Air Quality AQ Index Pollutant
Not available.

Snow Depth

Station Depth Elevation

Earthquake Activity

City Distance Mag. Time & Date
Minimum magnitude displayed is 2.5.

Coastal Water Temperatures

Place Temperature

Stations

Nearby Weather Stations

Station Location Temp. Windchill Dew Point Humidity Wind Precip. Elev Updated Type
                   

Watches & Warnings

There are currently no watches in effect.